createdAt,value
2022-08-12T00:00:00.294Z,3.40
2022-08-12T00:02:45.753Z,3.25
2022-08-12T00:05:34.246Z,3.83
2022-08-12T00:08:28.627Z,3.40
2022-08-12T00:11:21.604Z,3.47
2022-08-12T00:14:07.406Z,3.92
2022-08-12T00:16:53.915Z,3.53
2022-08-12T00:19:39.470Z,3.35
2022-08-12T00:22:28.434Z,3.30
2022-08-12T00:25:18.639Z,3.50
2022-08-12T00:28:07.719Z,3.83
2022-08-12T00:30:54.969Z,3.30
2022-08-12T00:33:52.483Z,3.85
2022-08-12T00:36:50.182Z,3.63
2022-08-12T00:39:36.312Z,3.25
2022-08-12T00:42:13.146Z,3.50
2022-08-12T00:44:44.853Z,4.30
2022-08-12T00:47:25.254Z,3.97
2022-08-12T00:49:54.541Z,3.60
2022-08-12T00:52:23.061Z,4.03
2022-08-12T00:54:56.855Z,4.20
2022-08-12T00:57:37.193Z,3.88
2022-08-12T01:00:14.054Z,3.95
2022-08-12T01:02:45.691Z,3.83
2022-08-12T01:05:36.922Z,3.90
2022-08-12T01:08:23.407Z,3.65
2022-08-12T01:11:10.656Z,3.90
2022-08-12T01:13:45.679Z,4.10
2022-08-12T01:16:15.310Z,3.83
2022-08-12T01:18:42.591Z,4.05
2022-08-12T01:21:09.365Z,3.88
2022-08-12T01:23:42.098Z,4.35
2022-08-12T01:26:16.794Z,3.83
2022-08-12T01:28:46.723Z,4.28
2022-08-12T01:31:16.793Z,3.55
2022-08-12T01:33:52.515Z,3.90
2022-08-12T01:36:25.848Z,3.90
2022-08-12T01:38:56.337Z,3.92
2022-08-12T01:41:28.345Z,3.72
2022-08-12T01:43:56.244Z,3.97
2022-08-12T01:46:49.847Z,4.03
2022-08-12T01:49:36.893Z,3.65
2022-08-12T01:52:21.410Z,3.92
2022-08-12T01:54:51.419Z,5.03
2022-08-12T01:57:57.769Z,3.72
2022-08-12T02:00:15.427Z,3.75
2022-08-12T02:02:54.006Z,3.58
2022-08-12T02:06:00.988Z,3.45
2022-08-12T02:09:05.125Z,3.72
2022-08-12T02:11:55.877Z,3.83
2022-08-12T02:14:26.060Z,4.50
2022-08-12T02:16:53.266Z,3.90
2022-08-12T02:19:39.208Z,4.32
2022-08-12T02:22:12.760Z,4.82
2022-08-12T02:24:42.774Z,3.60
2022-08-12T02:27:10.653Z,3.45
2022-08-12T02:29:39.488Z,3.97
2022-08-12T02:32:07.734Z,3.80
2022-08-12T02:34:34.857Z,4.25
2022-08-12T02:37:03.615Z,4.05
2022-08-12T02:39:33.914Z,4.15
2022-08-12T02:42:03.719Z,3.92
2022-08-12T02:44:40.181Z,4.05
2022-08-12T02:47:58.928Z,3.63
2022-08-12T02:49:58.741Z,4.65
2022-08-12T02:52:27.584Z,4.13
2022-08-12T02:55:01.428Z,4.22
2022-08-12T02:57:31.479Z,4.20
2022-08-12T03:00:00.450Z,4.18
2022-08-12T03:02:29.014Z,3.85
2022-08-12T03:04:57.515Z,4.68
2022-08-12T03:07:29.603Z,4.55
2022-08-12T03:10:17.698Z,3.50
2022-08-12T03:12:50.724Z,4.55
2022-08-12T03:15:22.527Z,4.03
2022-08-12T03:18:24.191Z,4.22
2022-08-12T03:20:43.749Z,4.45
2022-08-12T03:23:29.116Z,4.70
2022-08-12T03:25:58.878Z,4.15
2022-08-12T03:28:45.026Z,4.38
2022-08-12T03:31:12.270Z,4.57
2022-08-12T03:33:45.679Z,4.35
2022-08-12T03:36:35.240Z,4.40
2022-08-12T03:39:18.101Z,4.40
2022-08-12T03:42:06.178Z,4.65
2022-08-12T03:45:18.016Z,4.85
2022-08-12T03:48:03.721Z,4.63
2022-08-12T03:50:49.610Z,4.65
2022-08-12T03:53:42.835Z,4.47
2022-08-12T03:56:28.317Z,4.80
2022-08-12T03:59:14.202Z,4.60
2022-08-12T04:01:41.326Z,4.72
2022-08-12T04:04:11.215Z,4.82
2022-08-12T04:06:45.237Z,4.82
2022-08-12T04:09:15.886Z,5.13
2022-08-12T04:12:04.150Z,4.93
2022-08-12T04:14:32.504Z,3.95
2022-08-12T04:16:59.694Z,4.95
2022-08-12T04:19:26.706Z,4.60
2022-08-12T04:22:02.772Z,4.60
2022-08-12T04:24:35.474Z,5.25
2022-08-12T04:27:05.697Z,5.72
2022-08-12T04:30:30.065Z,5.18
2022-08-12T04:32:21.367Z,5.90
2022-08-12T04:34:48.253Z,4.63
2022-08-12T04:37:16.711Z,5.10
2022-08-12T04:39:46.228Z,5.53
2022-08-12T04:42:13.413Z,5.38
2022-08-12T04:44:40.360Z,5.13
2022-08-12T04:47:11.830Z,6.10
2022-08-12T04:49:40.861Z,6.05
2022-08-12T04:52:07.808Z,5.13
2022-08-12T04:54:35.090Z,5.40
2022-08-12T04:57:03.701Z,5.60
2022-08-12T04:59:47.047Z,5.07
2022-08-12T05:02:22.646Z,5.70
2022-08-12T05:04:55.708Z,5.60
2022-08-12T05:07:23.321Z,5.95
2022-08-12T05:10:00.586Z,6.13
2022-08-12T05:12:39.584Z,6.90
2022-08-12T05:15:19.121Z,6.60
2022-08-12T05:17:55.556Z,5.70
2022-08-12T05:20:26.191Z,5.63
2022-08-12T05:23:21.333Z,6.63
2022-08-12T05:25:50.172Z,5.97
2022-08-12T05:28:18.759Z,5.93
2022-08-12T05:30:46.693Z,6.50
2022-08-12T05:33:15.663Z,6.35
2022-08-12T05:35:47.935Z,6.40
2022-08-12T05:38:37.131Z,6.68
2022-08-12T05:41:06.512Z,8.07
2022-08-12T05:43:35.935Z,7.70
2022-08-12T05:46:02.845Z,6.43
2022-08-12T05:48:31.213Z,7.90
2022-08-12T05:50:58.122Z,6.40
2022-08-12T05:53:24.966Z,6.38
2022-08-12T05:55:53.513Z,7.03
2022-08-12T05:58:21.227Z,6.32
2022-08-12T06:00:48.206Z,6.97
2022-08-12T06:03:19.703Z,7.93
2022-08-12T06:05:55.329Z,7.57
2022-08-12T06:08:25.090Z,8.82
2022-08-12T06:10:52.417Z,7.03
2022-08-12T06:13:28.425Z,7.00
2022-08-12T06:16:07.634Z,6.50
2022-08-12T06:18:35.544Z,7.13
2022-08-12T06:21:02.602Z,6.63
2022-08-12T06:23:30.450Z,7.35
2022-08-12T06:25:57.882Z,6.05
2022-08-12T06:28:24.988Z,6.53
2022-08-12T06:31:22.238Z,7.80
2022-08-12T06:33:56.123Z,6.60
2022-08-12T06:36:33.347Z,6.80
2022-08-12T06:39:00.984Z,7.10
2022-08-12T06:42:27.752Z,7.10
2022-08-12T06:44:33.833Z,6.80
2022-08-12T06:47:01.094Z,7.22
2022-08-12T06:49:33.467Z,6.00
2022-08-12T06:52:00.361Z,6.85
2022-08-12T06:54:31.127Z,6.45
2022-08-12T06:57:58.108Z,6.18
2022-08-12T06:59:45.067Z,7.30
2022-08-12T07:02:12.378Z,6.30
2022-08-12T07:04:39.647Z,5.82
2022-08-12T07:07:10.463Z,6.45
2022-08-12T07:09:58.105Z,6.68
2022-08-12T07:12:29.426Z,5.78
2022-08-12T07:14:57.733Z,5.78
2022-08-12T07:17:24.998Z,5.57
2022-08-12T07:19:53.575Z,5.70
2022-08-12T07:22:23.130Z,5.47
2022-08-12T07:25:10.130Z,5.07
2022-08-12T07:27:42.305Z,5.57
2022-08-12T07:30:09.999Z,4.50
2022-08-12T07:32:37.059Z,5.32
2022-08-12T07:35:04.777Z,4.35
2022-08-12T07:37:31.729Z,4.93
2022-08-12T07:39:59.587Z,4.80
2022-08-12T07:42:34.192Z,4.60
2022-08-12T07:45:01.010Z,3.58
2022-08-12T07:47:27.969Z,3.70
2022-08-12T07:50:04.453Z,4.43
2022-08-12T07:52:35.051Z,3.50
2022-08-12T07:55:03.289Z,3.65
2022-08-12T07:57:33.997Z,4.22
2022-08-12T08:00:03.772Z,3.33
2022-08-12T08:02:33.588Z,3.42
2022-08-12T08:05:00.959Z,3.33
2022-08-12T08:07:30.685Z,3.10
2022-08-12T08:09:59.755Z,4.20
2022-08-12T08:12:47.748Z,3.22
2022-08-12T08:15:15.989Z,2.97
2022-08-12T08:17:57.726Z,2.88
2022-08-12T08:20:28.793Z,2.85
2022-08-12T08:22:57.293Z,3.25
2022-08-12T08:25:36.181Z,3.05
2022-08-12T08:28:07.508Z,3.00
2022-08-12T08:30:36.137Z,2.67
2022-08-12T08:33:05.214Z,3.47
2022-08-12T08:35:50.121Z,3.03
2022-08-12T08:38:33.268Z,3.25
2022-08-12T08:42:18.803Z,2.65
2022-08-12T08:44:11.555Z,3.25
2022-08-12T08:46:40.236Z,2.67
2022-08-12T08:49:07.283Z,2.88
2022-08-12T08:51:34.542Z,2.25
2022-08-12T08:54:01.443Z,2.60
2022-08-12T08:56:31.481Z,2.58
2022-08-12T08:58:58.677Z,2.97
2022-08-12T09:01:26.585Z,2.13
2022-08-12T09:05:11.313Z,2.65
2022-08-12T09:06:56.647Z,2.38
2022-08-12T09:09:24.278Z,2.35
2022-08-12T09:12:11.558Z,2.90
2022-08-12T09:14:51.049Z,2.80
2022-08-12T09:17:21.260Z,2.28
2022-08-12T09:22:36.343Z,2.50
2022-08-12T09:25:07.478Z,2.90
2022-08-12T09:27:57.939Z,1.75
2022-08-12T09:30:42.425Z,2.13
2022-08-12T09:33:14.910Z,2.28
2022-08-12T09:36:03.019Z,2.55
2022-08-12T09:38:33.644Z,2.33
2022-08-12T09:42:08.571Z,3.45
2022-08-12T09:44:39.062Z,2.20
2022-08-12T09:46:56.482Z,3.05
2022-08-12T09:49:25.181Z,2.47
2022-08-12T09:51:55.393Z,2.05
2022-08-12T09:54:32.957Z,2.38
2022-08-12T09:58:46.129Z,2.88
2022-08-12T10:00:17.454Z,2.22
2022-08-12T10:03:31.967Z,2.30
2022-08-12T10:06:27.601Z,2.63
2022-08-12T10:08:52.294Z,2.40
2022-08-12T10:12:10.475Z,2.60
2022-08-12T10:14:34.208Z,2.10
2022-08-12T10:17:02.233Z,2.33
2022-08-12T10:19:36.581Z,2.80
2022-08-12T10:22:17.158Z,2.33
2022-08-12T10:25:17.193Z,1.83
2022-08-12T10:28:09.043Z,2.40
2022-08-12T10:30:46.879Z,2.17
2022-08-12T10:33:31.558Z,2.08
2022-08-12T10:36:00.543Z,2.60
2022-08-12T10:38:33.284Z,2.60
2022-08-12T10:41:58.358Z,2.47
2022-08-12T10:44:17.282Z,2.53
2022-08-12T10:46:49.499Z,2.67
2022-08-12T10:50:03.732Z,2.80
2022-08-12T10:52:34.617Z,2.55
2022-08-12T10:54:55.792Z,2.97
2022-08-12T10:58:15.664Z,1.90
2022-08-12T11:00:33.857Z,2.28
2022-08-12T11:04:23.175Z,2.60
2022-08-12T11:07:07.813Z,3.63
2022-08-12T11:08:42.360Z,2.53
2022-08-12T11:11:13.384Z,2.78
2022-08-12T11:13:48.380Z,3.20
2022-08-12T11:16:22.999Z,2.70
2022-08-12T11:18:54.950Z,2.35
2022-08-12T11:21:22.824Z,2.60
2022-08-12T11:24:18.857Z,2.15
2022-08-12T11:30:05.283Z,2.92
2022-08-12T11:32:17.300Z,2.55
2022-08-12T11:34:52.608Z,2.58
2022-08-12T11:37:25.534Z,2.30
2022-08-12T11:42:35.789Z,2.90
2022-08-12T11:45:05.319Z,2.17
2022-08-12T11:47:40.307Z,2.13
2022-08-12T11:50:08.424Z,2.35
2022-08-12T11:52:55.268Z,2.40
2022-08-12T11:55:24.389Z,2.45
2022-08-12T11:58:07.475Z,3.15
2022-08-12T12:03:43.714Z,2.65
2022-08-12T12:06:17.835Z,2.33
2022-08-12T12:08:51.575Z,2.53
2022-08-12T12:11:21.231Z,2.55
2022-08-12T12:14:08.918Z,4.15
2022-08-12T12:16:38.279Z,2.60
2022-08-12T12:19:07.145Z,2.60
2022-08-12T12:21:48.221Z,3.90
2022-08-12T12:24:22.101Z,2.80
2022-08-12T12:27:00.618Z,3.28
2022-08-12T12:30:19.725Z,2.90
2022-08-12T12:32:22.935Z,2.60
2022-08-12T12:35:14.113Z,4.68
2022-08-12T12:38:19.953Z,5.03
2022-08-12T12:40:50.207Z,4.35
2022-08-12T12:43:28.483Z,2.63
2022-08-12T12:46:04.235Z,2.85
2022-08-12T12:48:31.242Z,2.60
2022-08-12T12:51:48.951Z,2.95
2022-08-12T12:54:08.096Z,2.22
2022-08-12T12:56:50.027Z,2.17
2022-08-12T12:59:55.657Z,2.53
2022-08-12T13:02:08.679Z,3.40
2022-08-12T13:04:37.496Z,2.60
2022-08-12T13:07:05.809Z,2.50
2022-08-12T13:09:36.302Z,2.30
2022-08-12T13:12:05.068Z,2.97
2022-08-12T13:14:33.234Z,2.63
2022-08-12T13:17:02.896Z,2.10
2022-08-12T13:19:37.608Z,2.35
2022-08-12T13:22:21.410Z,2.85
2022-08-12T13:24:55.463Z,2.20
2022-08-12T13:27:46.200Z,2.78
2022-08-12T13:30:17.793Z,2.40
2022-08-12T13:32:59.466Z,2.28
2022-08-12T13:36:02.828Z,2.80
2022-08-12T13:38:26.880Z,2.28
2022-08-12T13:41:02.379Z,2.22
2022-08-12T13:43:41.303Z,3.20
2022-08-12T13:46:12.222Z,2.35
2022-08-12T13:48:44.743Z,2.22
2022-08-12T13:51:12.366Z,2.13
2022-08-12T13:53:57.716Z,2.15
2022-08-12T13:56:34.577Z,2.00
2022-08-12T13:59:07.849Z,2.67
2022-08-12T14:01:40.284Z,1.80
2022-08-12T14:04:11.619Z,2.00
2022-08-12T14:06:43.427Z,1.92
2022-08-12T14:09:17.298Z,2.47
2022-08-12T14:11:58.278Z,2.05
2022-08-12T14:14:31.045Z,2.10
2022-08-12T14:17:02.344Z,2.03
2022-08-12T14:19:38.047Z,1.83
2022-08-12T14:22:14.532Z,1.58
2022-08-12T14:24:42.390Z,2.03
2022-08-12T14:27:12.188Z,2.42
2022-08-12T14:30:05.328Z,7.35
2022-08-12T14:32:35.642Z,2.17
2022-08-12T14:35:06.510Z,1.90
2022-08-12T14:37:56.713Z,1.70
2022-08-12T14:40:29.759Z,1.98
2022-08-12T14:42:58.252Z,2.03
2022-08-12T14:45:45.503Z,2.33
2022-08-12T14:48:14.853Z,2.20
2022-08-12T14:51:09.505Z,2.33
2022-08-12T14:59:56.429Z,3.55
2022-08-12T15:02:20.519Z,1.92
2022-08-12T15:04:56.136Z,2.33
2022-08-12T15:07:33.167Z,2.00
2022-08-12T15:10:10.159Z,3.33
2022-08-12T15:12:40.752Z,3.40
2022-08-12T15:15:10.566Z,3.55
2022-08-12T15:17:39.028Z,3.53
2022-08-12T15:20:31.070Z,3.03
2022-08-12T15:22:56.565Z,2.55
2022-08-12T15:25:25.379Z,2.78
2022-08-12T15:28:05.171Z,3.28
2022-08-12T15:30:34.312Z,3.30
2022-08-12T15:33:12.310Z,2.50
2022-08-12T15:35:50.194Z,2.53
2022-08-12T15:38:21.001Z,3.30
2022-08-12T15:40:54.806Z,2.45
2022-08-12T15:44:14.176Z,2.50
2022-08-12T15:46:15.766Z,2.72
2022-08-12T15:48:47.603Z,2.55
2022-08-12T15:51:58.774Z,2.92
2022-08-12T15:54:33.297Z,2.42
2022-08-12T15:57:05.681Z,2.85
2022-08-12T16:00:00.252Z,2.20
2022-08-12T16:02:21.166Z,4.43
2022-08-12T16:04:50.509Z,2.55
2022-08-12T16:07:29.995Z,2.45
2022-08-12T16:10:06.789Z,2.42
2022-08-12T16:12:39.661Z,2.10
2022-08-12T16:15:08.397Z,1.77
2022-08-12T16:18:20.141Z,2.75
2022-08-12T16:20:33.062Z,2.50
2022-08-12T16:23:04.392Z,2.22
2022-08-12T16:26:03.153Z,2.17
2022-08-12T16:28:22.651Z,2.75
2022-08-12T16:30:55.041Z,2.10
2022-08-12T16:33:22.035Z,1.90
2022-08-12T16:35:50.174Z,2.58
2022-08-12T16:38:28.015Z,1.83
2022-08-12T16:40:56.924Z,1.80
2022-08-12T16:43:31.509Z,2.00
2022-08-12T16:46:32.166Z,2.33
2022-08-12T16:48:54.819Z,1.65
2022-08-12T16:51:26.518Z,2.00
2022-08-12T16:53:53.464Z,1.80
2022-08-12T16:56:20.420Z,1.90
2022-08-12T16:58:47.498Z,2.05
2022-08-12T17:01:19.650Z,1.85
2022-08-12T17:04:08.595Z,2.58
2022-08-12T17:06:36.644Z,1.60
2022-08-12T17:09:08.659Z,1.95
2022-08-12T17:11:44.426Z,4.28
2022-08-12T17:14:11.777Z,5.05
2022-08-12T17:16:40.374Z,5.13
2022-08-12T17:19:09.407Z,2.40
2022-08-12T17:21:41.767Z,2.45
2022-08-12T17:24:30.559Z,2.50
2022-08-12T17:26:59.713Z,4.35
2022-08-12T17:30:00.283Z,2.40
2022-08-12T17:32:14.543Z,2.55
2022-08-12T17:35:00.914Z,2.10
2022-08-12T17:37:28.034Z,3.05
2022-08-12T17:40:15.818Z,2.10
2022-08-12T17:42:43.626Z,1.92
2022-08-12T17:45:20.275Z,2.30
2022-08-12T17:48:01.216Z,1.98
2022-08-12T17:50:33.892Z,1.60
2022-08-12T17:53:02.819Z,1.92
2022-08-12T17:55:40.193Z,2.50
2022-08-12T17:58:12.977Z,2.92
2022-08-12T18:00:44.193Z,2.00
2022-08-12T18:03:58.128Z,2.30
2022-08-12T18:06:13.671Z,2.70
2022-08-12T18:08:54.238Z,2.22
2022-08-12T18:12:05.505Z,1.70
2022-08-12T18:14:30.225Z,1.80
2022-08-12T18:17:00.385Z,3.67
2022-08-12T18:20:04.314Z,2.88
2022-08-12T18:22:21.931Z,4.07
2022-08-12T18:25:03.651Z,2.63
2022-08-12T18:27:44.164Z,2.70
2022-08-12T18:30:16.411Z,4.63
2022-08-12T18:32:58.236Z,2.55
2022-08-12T18:35:47.044Z,7.45
2022-08-12T18:38:20.151Z,2.70
2022-08-12T18:41:09.384Z,2.50
2022-08-12T18:43:59.151Z,4.80
2022-08-12T18:46:54.406Z,2.50
2022-08-12T18:49:35.001Z,2.15
2022-08-12T18:52:08.243Z,2.30
2022-08-12T18:54:52.198Z,2.22
2022-08-12T18:58:06.199Z,3.30
2022-08-12T19:00:20.944Z,3.00
2022-08-12T19:02:50.673Z,2.47
2022-08-12T19:05:18.040Z,3.80
2022-08-12T19:08:00.212Z,3.40
2022-08-12T19:10:32.457Z,2.30
2022-08-12T19:13:23.835Z,4.15
2022-08-12T19:15:54.136Z,4.32
2022-08-12T19:18:25.811Z,11.07
2022-08-12T19:20:58.536Z,3.22
2022-08-12T19:23:33.851Z,2.35
2022-08-12T19:26:04.474Z,2.75
2022-08-12T19:28:35.921Z,3.13
2022-08-12T19:31:45.247Z,3.67
2022-08-12T19:37:38.423Z,3.08
2022-08-12T19:40:32.007Z,2.50
2022-08-12T19:42:57.688Z,3.25
2022-08-12T19:45:42.311Z,2.38
2022-08-12T19:48:18.100Z,2.50
2022-08-12T19:50:50.174Z,2.28
2022-08-12T19:53:19.618Z,2.80
2022-08-12T19:55:50.719Z,3.05
2022-08-12T19:58:20.302Z,4.72
2022-08-12T20:00:53.595Z,5.45
2022-08-12T20:03:39.592Z,4.72
2022-08-12T20:06:23.888Z,4.85
2022-08-12T20:08:56.618Z,4.18
2022-08-12T20:12:14.506Z,7.90
2022-08-12T20:14:18.058Z,3.63
2022-08-12T20:16:52.608Z,3.13
2022-08-12T20:19:52.236Z,2.78
2022-08-12T20:22:24.901Z,3.15
2022-08-12T20:24:57.227Z,2.92
2022-08-12T20:27:29.721Z,3.17
2022-08-12T20:30:14.208Z,3.47
2022-08-12T20:33:01.961Z,2.80
2022-08-12T20:36:07.004Z,3.00
2022-08-12T20:38:26.443Z,4.15
2022-08-12T20:40:55.664Z,3.03
2022-08-12T20:43:24.212Z,3.17
2022-08-12T20:45:57.589Z,3.00
2022-08-12T20:48:29.578Z,3.25
2022-08-12T20:51:04.230Z,5.57
2022-08-12T20:53:58.596Z,5.28
2022-08-12T20:56:30.551Z,3.97
2022-08-12T20:58:59.910Z,3.35
2022-08-12T21:01:36.592Z,2.50
2022-08-12T21:04:32.810Z,2.55
2022-08-12T21:07:08.762Z,3.22
2022-08-12T21:09:48.164Z,18.77
2022-08-12T21:12:27.632Z,21.05
2022-08-12T21:15:24.211Z,12.27
2022-08-12T21:18:11.975Z,4.63
2022-08-12T21:20:53.100Z,3.00
2022-08-12T21:23:21.875Z,2.95
2022-08-12T21:25:51.596Z,2.65
2022-08-12T21:28:20.823Z,3.90
2022-08-12T21:31:10.579Z,3.92
2022-08-12T21:33:58.755Z,6.68
2022-08-12T21:36:34.139Z,24.30
2022-08-12T21:39:18.797Z,8.27
2022-08-12T21:41:52.472Z,12.10
2022-08-12T21:45:44.662Z,15.00
2022-08-12T21:47:21.271Z,14.73
2022-08-12T21:50:06.682Z,10.70
2022-08-12T21:52:40.858Z,4.70
2022-08-12T21:55:17.845Z,3.08
2022-08-12T21:57:54.640Z,3.38
2022-08-12T22:00:32.967Z,3.47
2022-08-12T22:04:01.722Z,3.78
2022-08-12T22:06:30.865Z,3.42
2022-08-12T22:09:15.666Z,5.63
2022-08-12T22:11:44.074Z,15.95
2022-08-12T22:14:24.273Z,16.48
2022-08-12T22:16:53.324Z,14.60
2022-08-12T22:19:21.447Z,6.57
2022-08-12T22:21:52.245Z,4.93
2022-08-12T22:24:25.922Z,4.18
2022-08-12T22:26:54.747Z,4.40
2022-08-12T22:29:40.816Z,5.82
2022-08-12T22:32:11.914Z,3.72
2022-08-12T22:34:39.750Z,4.78
2022-08-12T22:37:11.277Z,4.20
2022-08-12T22:39:45.510Z,3.42
2022-08-12T22:42:32.435Z,20.40
2022-08-12T22:45:23.058Z,10.95
2022-08-12T22:47:54.804Z,10.95
2022-08-12T22:50:26.915Z,5.10
2022-08-12T22:53:15.527Z,4.32
2022-08-12T22:55:59.945Z,3.70
2022-08-12T22:58:40.450Z,4.22
2022-08-12T23:01:08.200Z,3.88
2022-08-12T23:03:48.891Z,3.30
2022-08-12T23:06:23.750Z,17.13
2022-08-12T23:08:52.445Z,21.83
2022-08-12T23:11:23.642Z,6.63
2022-08-12T23:13:56.965Z,3.72
2022-08-12T23:16:31.522Z,4.18
2022-08-12T23:19:09.710Z,4.07
2022-08-12T23:22:03.706Z,3.88
2022-08-12T23:24:26.654Z,4.00
2022-08-12T23:27:13.239Z,3.80
2022-08-12T23:29:43.320Z,3.75
2022-08-12T23:32:13.461Z,3.38
2022-08-12T23:35:03.443Z,3.40
2022-08-12T23:37:47.137Z,3.22
2022-08-12T23:40:22.506Z,6.78
2022-08-12T23:42:55.225Z,11.35
2022-08-12T23:45:32.014Z,12.13
2022-08-12T23:48:01.741Z,4.35
2022-08-12T23:50:34.124Z,3.72
2022-08-12T23:53:06.429Z,5.15
2022-08-12T23:55:42.320Z,4.53
2022-08-12T23:58:21.104Z,3.35
